sensor_id;sensor_type;location;lat;lon;timestamp;P1;durP1;ratioP1;P2;durP2;ratioP2
8046;SDS011;67150;42.516;23.358;2023-06-10T00:01:44;5.20;;;3.10;;
8046;SDS011;67150;42.516;23.358;2023-06-10T00:04:14;3.50;;;3.20;;
8046;SDS011;67150;42.516;23.358;2023-06-10T00:06:45;4.23;;;3.60;;
8046;SDS011;67150;42.516;23.358;2023-06-10T00:09:15;3.10;;;2.90;;
8046;SDS011;67150;42.516;23.358;2023-06-10T00:11:45;3.60;;;3.10;;
8046;SDS011;67150;42.516;23.358;2023-06-10T00:14:12;4.07;;;3.10;;
8046;SDS011;67150;42.516;23.358;2023-06-10T00:16:40;3.30;;;3.03;;
8046;SDS011;67150;42.516;23.358;2023-06-10T00:19:10;3.40;;;3.10;;
8046;SDS011;67150;42.516;23.358;2023-06-10T00:21:39;3.53;;;3.23;;
8046;SDS011;67150;42.516;23.358;2023-06-10T00:24:07;3.60;;;3.30;;
8046;SDS011;67150;42.516;23.358;2023-06-10T00:26:37;3.27;;;3.00;;
8046;SDS011;67150;42.516;23.358;2023-06-10T00:29:06;5.67;;;3.47;;
8046;SDS011;67150;42.516;23.358;2023-06-10T00:31:34;3.60;;;3.30;;
8046;SDS011;67150;42.516;23.358;2023-06-10T00:34:01;4.27;;;3.30;;
8046;SDS011;67150;42.516;23.358;2023-06-10T00:36:29;3.47;;;3.17;;
8046;SDS011;67150;42.516;23.358;2023-06-10T00:38:56;3.73;;;3.40;;
8046;SDS011;67150;42.516;23.358;2023-06-10T00:41:24;3.03;;;2.77;;
8046;SDS011;67150;42.516;23.358;2023-06-10T00:43:55;3.60;;;3.30;;
8046;SDS011;67150;42.516;23.358;2023-06-10T00:46:24;4.60;;;3.30;;
8046;SDS011;67150;42.516;23.358;2023-06-10T00:48:53;3.57;;;3.27;;
8046;SDS011;67150;42.516;23.358;2023-06-10T00:51:20;3.10;;;2.90;;
8046;SDS011;67150;42.516;23.358;2023-06-10T00:53:49;3.40;;;3.10;;
8046;SDS011;67150;42.516;23.358;2023-06-10T00:56:16;5.33;;;3.20;;
8046;SDS011;67150;42.516;23.358;2023-06-10T00:58:43;3.30;;;3.00;;
8046;SDS011;67150;42.516;23.358;2023-06-10T01:01:11;3.30;;;3.00;;
8046;SDS011;67150;42.516;23.358;2023-06-10T01:03:40;4.20;;;2.80;;
8046;SDS011;67150;42.516;23.358;2023-06-10T01:06:09;3.93;;;3.13;;
8046;SDS011;67150;42.516;23.358;2023-06-10T01:08:46;4.70;;;3.27;;
8046;SDS011;67150;42.516;23.358;2023-06-10T01:11:20;3.67;;;3.17;;
8046;SDS011;67150;42.516;23.358;2023-06-10T01:13:56;3.73;;;3.23;;
8046;SDS011;67150;42.516;23.358;2023-06-10T01:16:26;3.33;;;3.03;;
8046;SDS011;67150;42.516;23.358;2023-06-10T01:18:55;2.93;;;2.73;;
8046;SDS011;67150;42.516;23.358;2023-06-10T01:21:24;3.47;;;3.10;;
8046;SDS011;67150;42.516;23.358;2023-06-10T01:23:52;3.20;;;2.90;;
8046;SDS011;67150;42.516;23.358;2023-06-10T01:26:23;3.93;;;3.53;;
8046;SDS011;67150;42.516;23.358;2023-06-10T01:28:57;3.37;;;3.07;;
8046;SDS011;67150;42.516;23.358;2023-06-10T01:31:33;3.50;;;3.20;;
8046;SDS011;67150;42.516;23.358;2023-06-10T01:34:06;4.00;;;3.70;;
8046;SDS011;67150;42.516;23.358;2023-06-10T01:36:38;3.57;;;3.13;;
8046;SDS011;67150;42.516;23.358;2023-06-10T01:39:07;3.63;;;3.33;;
8046;SDS011;67150;42.516;23.358;2023-06-10T01:41:37;3.77;;;3.47;;
8046;SDS011;67150;42.516;23.358;2023-06-10T01:44:04;3.60;;;3.30;;
8046;SDS011;67150;42.516;23.358;2023-06-10T01:46:32;5.33;;;3.23;;
8046;SDS011;67150;42.516;23.358;2023-06-10T01:48:59;3.70;;;3.40;;
8046;SDS011;67150;42.516;23.358;2023-06-10T01:51:26;3.67;;;3.33;;
8046;SDS011;67150;42.516;23.358;2023-06-10T01:53:55;3.87;;;3.43;;
8046;SDS011;67150;42.516;23.358;2023-06-10T01:56:22;5.47;;;3.30;;
8046;SDS011;67150;42.516;23.358;2023-06-10T01:58:50;4.27;;;3.07;;
8046;SDS011;67150;42.516;23.358;2023-06-10T02:01:20;3.53;;;3.23;;
8046;SDS011;67150;42.516;23.358;2023-06-10T02:03:47;3.77;;;3.47;;
8046;SDS011;67150;42.516;23.358;2023-06-10T02:06:15;4.63;;;3.90;;
8046;SDS011;67150;42.516;23.358;2023-06-10T02:08:42;3.30;;;3.10;;
8046;SDS011;67150;42.516;23.358;2023-06-10T02:11:11;6.17;;;3.67;;
8046;SDS011;67150;42.516;23.358;2023-06-10T02:13:41;3.80;;;3.50;;
8046;SDS011;67150;42.516;23.358;2023-06-10T02:16:08;4.13;;;3.83;;
8046;SDS011;67150;42.516;23.358;2023-06-10T02:18:37;3.87;;;3.57;;
8046;SDS011;67150;42.516;23.358;2023-06-10T02:21:06;3.97;;;3.67;;
8046;SDS011;67150;42.516;23.358;2023-06-10T02:23:33;4.83;;;3.90;;
8046;SDS011;67150;42.516;23.358;2023-06-10T02:26:00;4.53;;;3.90;;
8046;SDS011;67150;42.516;23.358;2023-06-10T02:28:30;3.90;;;3.60;;
8046;SDS011;67150;42.516;23.358;2023-06-10T02:31:00;3.77;;;3.47;;
8046;SDS011;67150;42.516;23.358;2023-06-10T02:33:27;4.50;;;4.10;;
8046;SDS011;67150;42.516;23.358;2023-06-10T02:35:55;4.67;;;4.27;;
8046;SDS011;67150;42.516;23.358;2023-06-10T02:38:23;4.83;;;4.30;;
8046;SDS011;67150;42.516;23.358;2023-06-10T02:40:50;4.10;;;3.80;;
8046;SDS011;67150;42.516;23.358;2023-06-10T02:43:17;4.60;;;4.20;;
8046;SDS011;67150;42.516;23.358;2023-06-10T02:45:46;4.47;;;3.97;;
8046;SDS011;67150;42.516;23.358;2023-06-10T02:48:13;4.80;;;4.30;;
8046;SDS011;67150;42.516;23.358;2023-06-10T02:50:41;4.23;;;3.87;;
8046;SDS011;67150;42.516;23.358;2023-06-10T02:53:08;4.63;;;4.23;;
8046;SDS011;67150;42.516;23.358;2023-06-10T02:55:35;5.70;;;4.23;;
8046;SDS011;67150;42.516;23.358;2023-06-10T02:58:03;5.53;;;4.50;;
8046;SDS011;67150;42.516;23.358;2023-06-10T03:00:31;4.70;;;4.30;;
8046;SDS011;67150;42.516;23.358;2023-06-10T03:02:59;5.03;;;4.53;;
8046;SDS011;67150;42.516;23.358;2023-06-10T03:05:28;4.90;;;4.50;;
8046;SDS011;67150;42.516;23.358;2023-06-10T03:07:57;5.27;;;4.33;;
8046;SDS011;67150;42.516;23.358;2023-06-10T03:10:24;5.20;;;4.73;;
8046;SDS011;67150;42.516;23.358;2023-06-10T03:12:52;5.90;;;4.63;;
8046;SDS011;67150;42.516;23.358;2023-06-10T03:15:19;4.67;;;4.27;;
8046;SDS011;67150;42.516;23.358;2023-06-10T03:17:47;4.57;;;4.17;;
8046;SDS011;67150;42.516;23.358;2023-06-10T03:20:16;4.80;;;4.40;;
8046;SDS011;67150;42.516;23.358;2023-06-10T03:22:43;4.40;;;4.00;;
8046;SDS011;67150;42.516;23.358;2023-06-10T03:25:10;4.53;;;4.13;;
8046;SDS011;67150;42.516;23.358;2023-06-10T03:27:39;4.27;;;3.97;;
8046;SDS011;67150;42.516;23.358;2023-06-10T03:30:07;4.47;;;4.07;;
8046;SDS011;67150;42.516;23.358;2023-06-10T03:32:35;6.70;;;4.40;;
8046;SDS011;67150;42.516;23.358;2023-06-10T03:35:03;5.10;;;4.07;;
8046;SDS011;67150;42.516;23.358;2023-06-10T03:37:33;5.37;;;4.33;;
8046;SDS011;67150;42.516;23.358;2023-06-10T03:40:01;4.63;;;4.23;;
8046;SDS011;67150;42.516;23.358;2023-06-10T03:42:29;5.47;;;4.53;;
8046;SDS011;67150;42.516;23.358;2023-06-10T03:44:56;5.13;;;4.00;;
8046;SDS011;67150;42.516;23.358;2023-06-10T03:47:23;6.00;;;4.40;;
8046;SDS011;67150;42.516;23.358;2023-06-10T03:49:51;5.03;;;4.53;;
8046;SDS011;67150;42.516;23.358;2023-06-10T03:52:19;4.60;;;4.20;;
8046;SDS011;67150;42.516;23.358;2023-06-10T03:54:48;4.43;;;4.10;;
8046;SDS011;67150;42.516;23.358;2023-06-10T03:57:15;5.97;;;4.57;;
8046;SDS011;67150;42.516;23.358;2023-06-10T03:59:43;4.33;;;3.93;;
8046;SDS011;67150;42.516;23.358;2023-06-10T04:02:10;4.50;;;4.10;;
8046;SDS011;67150;42.516;23.358;2023-06-10T04:04:37;4.47;;;4.07;;
8046;SDS011;67150;42.516;23.358;2023-06-10T04:07:04;4.33;;;3.93;;
8046;SDS011;67150;42.516;23.358;2023-06-10T04:09:33;4.80;;;4.33;;
8046;SDS011;67150;42.516;23.358;2023-06-10T04:12:02;4.57;;;4.17;;
8046;SDS011;67150;42.516;23.358;2023-06-10T04:14:31;4.23;;;3.90;;
8046;SDS011;67150;42.516;23.358;2023-06-10T04:16:59;4.13;;;3.83;;
8046;SDS011;67150;42.516;23.358;2023-06-10T04:19:27;5.00;;;3.60;;
8046;SDS011;67150;42.516;23.358;2023-06-10T04:21:56;4.50;;;4.10;;
8046;SDS011;67150;42.516;23.358;2023-06-10T04:24:23;4.50;;;4.10;;
8046;SDS011;67150;42.516;23.358;2023-06-10T04:26:51;5.47;;;4.37;;
8046;SDS011;67150;42.516;23.358;2023-06-10T04:29:20;4.30;;;4.00;;
8046;SDS011;67150;42.516;23.358;2023-06-10T04:31:48;5.87;;;4.20;;
8046;SDS011;67150;42.516;23.358;2023-06-10T04:34:16;5.57;;;3.70;;
8046;SDS011;67150;42.516;23.358;2023-06-10T04:36:43;4.00;;;3.60;;
8046;SDS011;67150;42.516;23.358;2023-06-10T04:39:10;4.10;;;3.70;;
8046;SDS011;67150;42.516;23.358;2023-06-10T04:41:38;4.20;;;3.90;;
8046;SDS011;67150;42.516;23.358;2023-06-10T04:44:05;4.97;;;3.90;;
8046;SDS011;67150;42.516;23.358;2023-06-10T04:46:34;4.77;;;4.00;;
8046;SDS011;67150;42.516;23.358;2023-06-10T04:49:01;4.10;;;3.80;;
8046;SDS011;67150;42.516;23.358;2023-06-10T04:51:30;4.73;;;4.13;;
8046;SDS011;67150;42.516;23.358;2023-06-10T04:53:58;4.00;;;3.70;;
8046;SDS011;67150;42.516;23.358;2023-06-10T04:56:27;3.70;;;3.40;;
8046;SDS011;67150;42.516;23.358;2023-06-10T04:58:55;4.70;;;4.20;;
8046;SDS011;67150;42.516;23.358;2023-06-10T05:01:23;4.30;;;3.93;;
8046;SDS011;67150;42.516;23.358;2023-06-10T05:03:52;4.10;;;3.70;;
8046;SDS011;67150;42.516;23.358;2023-06-10T05:06:19;4.60;;;3.83;;
8046;SDS011;67150;42.516;23.358;2023-06-10T05:08:47;7.50;;;4.17;;
8046;SDS011;67150;42.516;23.358;2023-06-10T05:11:14;4.27;;;3.87;;
8046;SDS011;67150;42.516;23.358;2023-06-10T05:13:41;4.07;;;3.77;;
8046;SDS011;67150;42.516;23.358;2023-06-10T05:16:09;4.87;;;3.80;;
8046;SDS011;67150;42.516;23.358;2023-06-10T05:18:36;4.07;;;3.77;;
8046;SDS011;67150;42.516;23.358;2023-06-10T05:21:05;4.20;;;3.90;;
8046;SDS011;67150;42.516;23.358;2023-06-10T05:23:33;3.97;;;3.70;;
8046;SDS011;67150;42.516;23.358;2023-06-10T05:26:00;4.23;;;3.93;;
8046;SDS011;67150;42.516;23.358;2023-06-10T05:28:28;4.97;;;3.67;;
8046;SDS011;67150;42.516;23.358;2023-06-10T05:30:55;4.53;;;4.13;;
8046;SDS011;67150;42.516;23.358;2023-06-10T05:33:22;3.90;;;3.60;;
8046;SDS011;67150;42.516;23.358;2023-06-10T05:39:19;4.67;;;4.00;;
8046;SDS011;67150;42.516;23.358;2023-06-10T05:41:46;4.43;;;4.03;;
8046;SDS011;67150;42.516;23.358;2023-06-10T05:44:13;4.50;;;4.20;;
8046;SDS011;67150;42.516;23.358;2023-06-10T05:46:40;4.10;;;3.80;;
8046;SDS011;67150;42.516;23.358;2023-06-10T05:49:11;4.70;;;4.23;;
8046;SDS011;67150;42.516;23.358;2023-06-10T05:51:38;4.83;;;4.47;;
8046;SDS011;67150;42.516;23.358;2023-06-10T05:54:05;4.33;;;4.03;;
8046;SDS011;67150;42.516;23.358;2023-06-10T05:56:34;4.27;;;3.97;;
8046;SDS011;67150;42.516;23.358;2023-06-10T05:59:01;4.30;;;4.00;;
8046;SDS011;67150;42.516;23.358;2023-06-10T06:01:29;4.63;;;4.20;;
8046;SDS011;67150;42.516;23.358;2023-06-10T06:03:56;4.80;;;4.40;;
8046;SDS011;67150;42.516;23.358;2023-06-10T06:06:23;4.40;;;4.10;;
8046;SDS011;67150;42.516;23.358;2023-06-10T06:08:50;4.77;;;4.40;;
8046;SDS011;67150;42.516;23.358;2023-06-10T06:11:18;4.90;;;4.50;;
8046;SDS011;67150;42.516;23.358;2023-06-10T06:13:46;4.73;;;4.33;;
8046;SDS011;67150;42.516;23.358;2023-06-10T06:16:14;4.73;;;4.33;;
8046;SDS011;67150;42.516;23.358;2023-06-10T06:18:42;4.90;;;4.50;;
8046;SDS011;67150;42.516;23.358;2023-06-10T06:21:09;4.20;;;3.90;;
8046;SDS011;67150;42.516;23.358;2023-06-10T06:23:36;4.30;;;4.00;;
8046;SDS011;67150;42.516;23.358;2023-06-10T06:26:04;4.90;;;4.40;;
8046;SDS011;67150;42.516;23.358;2023-06-10T06:28:32;5.13;;;4.10;;
8046;SDS011;67150;42.516;23.358;2023-06-10T06:31:02;4.70;;;4.30;;
8046;SDS011;67150;42.516;23.358;2023-06-10T06:33:29;5.47;;;4.40;;
8046;SDS011;67150;42.516;23.358;2023-06-10T06:35:56;4.83;;;4.27;;
8046;SDS011;67150;42.516;23.358;2023-06-10T06:38:25;4.70;;;4.30;;
8046;SDS011;67150;42.516;23.358;2023-06-10T06:40:53;4.30;;;3.97;;
8046;SDS011;67150;42.516;23.358;2023-06-10T06:43:20;4.67;;;4.10;;
8046;SDS011;67150;42.516;23.358;2023-06-10T06:45:48;5.03;;;4.53;;
8046;SDS011;67150;42.516;23.358;2023-06-10T06:48:17;4.50;;;4.03;;
8046;SDS011;67150;42.516;23.358;2023-06-10T06:50:44;4.50;;;4.10;;
8046;SDS011;67150;42.516;23.358;2023-06-10T06:53:12;4.47;;;4.07;;
8046;SDS011;67150;42.516;23.358;2023-06-10T06:55:39;4.77;;;4.27;;
8046;SDS011;67150;42.516;23.358;2023-06-10T06:58:06;5.30;;;4.37;;
8046;SDS011;67150;42.516;23.358;2023-06-10T07:00:34;4.60;;;4.20;;
8046;SDS011;67150;42.516;23.358;2023-06-10T07:03:01;4.57;;;4.23;;
8046;SDS011;67150;42.516;23.358;2023-06-10T07:05:30;4.57;;;4.20;;
8046;SDS011;67150;42.516;23.358;2023-06-10T07:07:58;4.43;;;4.00;;
8046;SDS011;67150;42.516;23.358;2023-06-10T07:10:25;4.40;;;4.00;;
8046;SDS011;67150;42.516;23.358;2023-06-10T07:12:53;4.83;;;4.37;;
8046;SDS011;67150;42.516;23.358;2023-06-10T07:15:21;4.20;;;3.80;;
8046;SDS011;67150;42.516;23.358;2023-06-10T07:17:48;4.37;;;4.07;;
8046;SDS011;67150;42.516;23.358;2023-06-10T07:20:16;4.50;;;4.10;;
8046;SDS011;67150;42.516;23.358;2023-06-10T07:22:44;5.90;;;4.30;;
8046;SDS011;67150;42.516;23.358;2023-06-10T07:25:12;4.40;;;4.10;;
8046;SDS011;67150;42.516;23.358;2023-06-10T07:27:41;4.90;;;4.50;;
8046;SDS011;67150;42.516;23.358;2023-06-10T07:30:08;4.40;;;4.10;;
8046;SDS011;67150;42.516;23.358;2023-06-10T07:32:36;4.70;;;4.30;;
8046;SDS011;67150;42.516;23.358;2023-06-10T07:35:06;4.27;;;3.90;;
8046;SDS011;67150;42.516;23.358;2023-06-10T07:37:34;4.43;;;4.10;;
8046;SDS011;67150;42.516;23.358;2023-06-10T07:40:04;5.10;;;4.20;;
8046;SDS011;67150;42.516;23.358;2023-06-10T07:42:33;4.03;;;3.73;;
8046;SDS011;67150;42.516;23.358;2023-06-10T07:45:02;4.80;;;4.40;;
8046;SDS011;67150;42.516;23.358;2023-06-10T07:47:32;4.30;;;3.90;;
8046;SDS011;67150;42.516;23.358;2023-06-10T07:50:00;4.67;;;4.27;;
8046;SDS011;67150;42.516;23.358;2023-06-10T07:52:28;4.30;;;4.00;;
8046;SDS011;67150;42.516;23.358;2023-06-10T07:54:56;4.40;;;4.00;;
8046;SDS011;67150;42.516;23.358;2023-06-10T07:57:25;4.63;;;4.23;;
8046;SDS011;67150;42.516;23.358;2023-06-10T07:59:53;4.70;;;3.87;;
8046;SDS011;67150;42.516;23.358;2023-06-10T08:02:23;4.13;;;3.83;;
8046;SDS011;67150;42.516;23.358;2023-06-10T08:04:50;4.33;;;4.03;;
8046;SDS011;67150;42.516;23.358;2023-06-10T08:07:18;4.57;;;4.17;;
8046;SDS011;67150;42.516;23.358;2023-06-10T08:09:45;4.60;;;4.20;;
8046;SDS011;67150;42.516;23.358;2023-06-10T08:12:13;4.40;;;4.00;;
8046;SDS011;67150;42.516;23.358;2023-06-10T08:14:42;4.20;;;3.87;;
8046;SDS011;67150;42.516;23.358;2023-06-10T08:17:10;4.47;;;4.07;;
8046;SDS011;67150;42.516;23.358;2023-06-10T08:19:37;4.20;;;3.80;;
8046;SDS011;67150;42.516;23.358;2023-06-10T08:22:05;4.93;;;4.30;;
8046;SDS011;67150;42.516;23.358;2023-06-10T08:24:32;4.53;;;4.13;;
8046;SDS011;67150;42.516;23.358;2023-06-10T08:27:00;4.70;;;4.30;;
8046;SDS011;67150;42.516;23.358;2023-06-10T08:29:27;4.77;;;4.33;;
8046;SDS011;67150;42.516;23.358;2023-06-10T08:31:56;4.10;;;3.80;;
8046;SDS011;67150;42.516;23.358;2023-06-10T08:34:23;4.30;;;3.90;;
8046;SDS011;67150;42.516;23.358;2023-06-10T08:36:50;4.37;;;4.07;;
8046;SDS011;67150;42.516;23.358;2023-06-10T08:39:20;4.10;;;3.80;;
8046;SDS011;67150;42.516;23.358;2023-06-10T08:41:49;4.37;;;3.97;;
8046;SDS011;67150;42.516;23.358;2023-06-10T08:44:27;4.10;;;3.80;;
8046;SDS011;67150;42.516;23.358;2023-06-10T08:46:59;3.90;;;3.60;;
8046;SDS011;67150;42.516;23.358;2023-06-10T08:49:28;4.40;;;4.00;;
8046;SDS011;67150;42.516;23.358;2023-06-10T08:52:00;4.53;;;4.13;;
8046;SDS011;67150;42.516;23.358;2023-06-10T08:54:32;4.07;;;3.77;;
8046;SDS011;67150;42.516;23.358;2023-06-10T08:57:03;4.77;;;4.17;;
8046;SDS011;67150;42.516;23.358;2023-06-10T08:59:32;4.10;;;3.80;;
8046;SDS011;67150;42.516;23.358;2023-06-10T09:02:01;3.93;;;3.63;;
8046;SDS011;67150;42.516;23.358;2023-06-10T09:04:30;3.90;;;3.60;;
8046;SDS011;67150;42.516;23.358;2023-06-10T09:06:58;4.20;;;3.90;;
8046;SDS011;67150;42.516;23.358;2023-06-10T09:09:27;4.10;;;3.80;;
8046;SDS011;67150;42.516;23.358;2023-06-10T09:11:55;5.63;;;3.87;;
8046;SDS011;67150;42.516;23.358;2023-06-10T09:14:23;4.20;;;3.80;;
8046;SDS011;67150;42.516;23.358;2023-06-10T09:16:50;4.27;;;3.97;;
8046;SDS011;67150;42.516;23.358;2023-06-10T09:19:19;4.10;;;3.80;;
8046;SDS011;67150;42.516;23.358;2023-06-10T09:21:46;5.27;;;3.97;;
8046;SDS011;67150;42.516;23.358;2023-06-10T09:24:16;4.63;;;4.10;;
8046;SDS011;67150;42.516;23.358;2023-06-10T09:26:44;4.13;;;3.73;;
8046;SDS011;67150;42.516;23.358;2023-06-10T09:29:13;4.23;;;3.70;;
8046;SDS011;67150;42.516;23.358;2023-06-10T09:31:40;4.57;;;4.07;;
8046;SDS011;67150;42.516;23.358;2023-06-10T09:34:08;4.13;;;3.70;;
8046;SDS011;67150;42.516;23.358;2023-06-10T09:36:37;4.10;;;3.80;;
8046;SDS011;67150;42.516;23.358;2023-06-10T09:39:05;3.87;;;3.57;;
8046;SDS011;67150;42.516;23.358;2023-06-10T09:41:41;4.67;;;3.90;;
8046;SDS011;67150;42.516;23.358;2023-06-10T09:44:11;3.87;;;3.50;;
8046;SDS011;67150;42.516;23.358;2023-06-10T09:46:40;4.43;;;4.03;;
8046;SDS011;67150;42.516;23.358;2023-06-10T09:49:08;4.23;;;3.93;;
8046;SDS011;67150;42.516;23.358;2023-06-10T09:51:37;4.27;;;3.87;;
8046;SDS011;67150;42.516;23.358;2023-06-10T09:54:15;4.43;;;4.03;;
8046;SDS011;67150;42.516;23.358;2023-06-10T09:56:43;3.90;;;3.60;;
8046;SDS011;67150;42.516;23.358;2023-06-10T09:59:13;4.27;;;3.93;;
8046;SDS011;67150;42.516;23.358;2023-06-10T10:01:41;4.03;;;3.73;;
8046;SDS011;67150;42.516;23.358;2023-06-10T10:04:08;4.27;;;3.87;;
8046;SDS011;67150;42.516;23.358;2023-06-10T10:06:36;4.70;;;3.70;;
8046;SDS011;67150;42.516;23.358;2023-06-10T10:09:05;4.33;;;3.93;;
8046;SDS011;67150;42.516;23.358;2023-06-10T10:11:33;4.10;;;3.80;;
8046;SDS011;67150;42.516;23.358;2023-06-10T10:14:02;4.07;;;3.70;;
8046;SDS011;67150;42.516;23.358;2023-06-10T10:16:33;3.93;;;3.63;;
8046;SDS011;67150;42.516;23.358;2023-06-10T10:19:07;4.30;;;3.90;;
8046;SDS011;67150;42.516;23.358;2023-06-10T10:21:52;4.37;;;3.97;;
8046;SDS011;67150;42.516;23.358;2023-06-10T10:24:23;4.10;;;3.70;;
8046;SDS011;67150;42.516;23.358;2023-06-10T10:26:58;4.10;;;3.80;;
8046;SDS011;67150;42.516;23.358;2023-06-10T10:29:28;4.07;;;3.77;;
8046;SDS011;67150;42.516;23.358;2023-06-10T10:31:59;3.83;;;3.53;;
8046;SDS011;67150;42.516;23.358;2023-06-10T10:34:30;4.43;;;4.03;;
8046;SDS011;67150;42.516;23.358;2023-06-10T10:37:04;3.90;;;3.60;;
8046;SDS011;67150;42.516;23.358;2023-06-10T10:39:32;4.10;;;3.77;;
8046;SDS011;67150;42.516;23.358;2023-06-10T10:42:00;4.10;;;3.80;;
8046;SDS011;67150;42.516;23.358;2023-06-10T10:44:30;4.10;;;3.80;;
8046;SDS011;67150;42.516;23.358;2023-06-10T10:46:58;3.93;;;3.63;;
8046;SDS011;67150;42.516;23.358;2023-06-10T10:49:30;4.27;;;3.63;;
8046;SDS011;67150;42.516;23.358;2023-06-10T10:51:59;4.03;;;3.73;;
8046;SDS011;67150;42.516;23.358;2023-06-10T10:54:29;5.00;;;3.70;;
8046;SDS011;67150;42.516;23.358;2023-06-10T10:57:10;4.17;;;3.70;;
8046;SDS011;67150;42.516;23.358;2023-06-10T10:59:57;4.00;;;3.70;;
8046;SDS011;67150;42.516;23.358;2023-06-10T11:02:33;4.70;;;3.80;;
8046;SDS011;67150;42.516;23.358;2023-06-10T11:05:07;4.03;;;3.73;;
8046;SDS011;67150;42.516;23.358;2023-06-10T11:07:35;4.20;;;3.90;;
8046;SDS011;67150;42.516;23.358;2023-06-10T11:10:05;4.20;;;3.90;;
8046;SDS011;67150;42.516;23.358;2023-06-10T11:12:51;3.90;;;3.60;;
8046;SDS011;67150;42.516;23.358;2023-06-10T11:15:19;4.80;;;4.13;;
8046;SDS011;67150;42.516;23.358;2023-06-10T11:18:11;4.10;;;3.80;;
8046;SDS011;67150;42.516;23.358;2023-06-10T11:20:51;4.30;;;3.90;;
8046;SDS011;67150;42.516;23.358;2023-06-10T11:23:29;4.00;;;3.70;;
8046;SDS011;67150;42.516;23.358;2023-06-10T11:26:20;3.90;;;3.60;;
8046;SDS011;67150;42.516;23.358;2023-06-10T11:29:01;4.03;;;3.73;;
8046;SDS011;67150;42.516;23.358;2023-06-10T11:31:30;3.77;;;3.47;;
8046;SDS011;67150;42.516;23.358;2023-06-10T11:33:59;4.00;;;3.70;;
8046;SDS011;67150;42.516;23.358;2023-06-10T11:36:28;4.00;;;3.63;;
8046;SDS011;67150;42.516;23.358;2023-06-10T11:38:56;4.17;;;3.87;;
8046;SDS011;67150;42.516;23.358;2023-06-10T11:41:26;4.17;;;3.60;;
8046;SDS011;67150;42.516;23.358;2023-06-10T11:43:56;3.73;;;3.43;;
8046;SDS011;67150;42.516;23.358;2023-06-10T11:46:24;3.90;;;3.60;;
8046;SDS011;67150;42.516;23.358;2023-06-10T11:48:53;3.70;;;3.40;;
8046;SDS011;67150;42.516;23.358;2023-06-10T11:51:21;3.70;;;3.50;;
8046;SDS011;67150;42.516;23.358;2023-06-10T11:53:51;4.20;;;3.80;;
8046;SDS011;67150;42.516;23.358;2023-06-10T11:56:19;3.77;;;3.47;;
8046;SDS011;67150;42.516;23.358;2023-06-10T11:58:52;4.00;;;3.70;;
8046;SDS011;67150;42.516;23.358;2023-06-10T12:01:20;3.90;;;3.60;;
8046;SDS011;67150;42.516;23.358;2023-06-10T12:03:56;4.13;;;3.70;;
8046;SDS011;67150;42.516;23.358;2023-06-10T12:06:24;3.53;;;3.33;;
8046;SDS011;67150;42.516;23.358;2023-06-10T12:08:51;5.90;;;3.83;;
8046;SDS011;67150;42.516;23.358;2023-06-10T12:11:18;3.97;;;3.67;;
8046;SDS011;67150;42.516;23.358;2023-06-10T12:13:47;4.00;;;3.70;;
8046;SDS011;67150;42.516;23.358;2023-06-10T12:16:16;3.73;;;3.43;;
8046;SDS011;67150;42.516;23.358;2023-06-10T12:18:44;3.80;;;3.50;;
8046;SDS011;67150;42.516;23.358;2023-06-10T12:21:17;4.03;;;3.63;;
8046;SDS011;67150;42.516;23.358;2023-06-10T12:24:05;4.03;;;3.73;;
8046;SDS011;67150;42.516;23.358;2023-06-10T12:26:35;3.67;;;3.33;;
8046;SDS011;67150;42.516;23.358;2023-06-10T12:29:12;3.90;;;3.60;;
8046;SDS011;67150;42.516;23.358;2023-06-10T12:31:53;4.80;;;3.50;;
8046;SDS011;67150;42.516;23.358;2023-06-10T12:34:30;4.10;;;3.70;;
8046;SDS011;67150;42.516;23.358;2023-06-10T12:36:58;3.90;;;3.60;;
8046;SDS011;67150;42.516;23.358;2023-06-10T12:39:26;4.43;;;3.47;;
8046;SDS011;67150;42.516;23.358;2023-06-10T12:41:53;4.47;;;3.80;;
8046;SDS011;67150;42.516;23.358;2023-06-10T12:44:31;3.67;;;3.47;;
8046;SDS011;67150;42.516;23.358;2023-06-10T12:47:01;5.70;;;3.70;;
8046;SDS011;67150;42.516;23.358;2023-06-10T12:49:35;4.90;;;3.67;;
8046;SDS011;67150;42.516;23.358;2023-06-10T12:52:03;4.17;;;3.83;;
8046;SDS011;67150;42.516;23.358;2023-06-10T12:54:30;4.10;;;3.70;;
8046;SDS011;67150;42.516;23.358;2023-06-10T12:56:58;3.93;;;3.63;;
8046;SDS011;67150;42.516;23.358;2023-06-10T12:59:26;4.00;;;3.70;;
8046;SDS011;67150;42.516;23.358;2023-06-10T13:01:54;4.30;;;3.90;;
8046;SDS011;67150;42.516;23.358;2023-06-10T13:04:23;4.00;;;3.70;;
8046;SDS011;67150;42.516;23.358;2023-06-10T13:06:50;4.33;;;3.93;;
8046;SDS011;67150;42.516;23.358;2023-06-10T13:09:18;3.97;;;3.63;;
8046;SDS011;67150;42.516;23.358;2023-06-10T13:11:45;4.03;;;3.63;;
8046;SDS011;67150;42.516;23.358;2023-06-10T13:14:12;4.20;;;3.80;;
8046;SDS011;67150;42.516;23.358;2023-06-10T13:16:40;3.93;;;3.63;;
8046;SDS011;67150;42.516;23.358;2023-06-10T13:19:08;4.07;;;3.77;;
8046;SDS011;67150;42.516;23.358;2023-06-10T13:21:38;4.20;;;3.80;;
8046;SDS011;67150;42.516;23.358;2023-06-10T13:24:05;7.67;;;3.87;;
8046;SDS011;67150;42.516;23.358;2023-06-10T13:26:33;4.30;;;3.90;;
8046;SDS011;67150;42.516;23.358;2023-06-10T13:29:00;4.70;;;4.07;;
8046;SDS011;67150;42.516;23.358;2023-06-10T13:31:27;4.30;;;3.60;;
8046;SDS011;67150;42.516;23.358;2023-06-10T13:33:57;4.77;;;3.83;;
8046;SDS011;67150;42.516;23.358;2023-06-10T13:36:24;4.20;;;3.83;;
8046;SDS011;67150;42.516;23.358;2023-06-10T13:38:53;4.00;;;3.70;;
8046;SDS011;67150;42.516;23.358;2023-06-10T13:41:21;4.03;;;3.63;;
8046;SDS011;67150;42.516;23.358;2023-06-10T13:43:48;3.93;;;3.63;;
8046;SDS011;67150;42.516;23.358;2023-06-10T13:46:15;4.87;;;3.70;;
8046;SDS011;67150;42.516;23.358;2023-06-10T13:48:43;3.70;;;3.40;;
8046;SDS011;67150;42.516;23.358;2023-06-10T13:51:10;4.30;;;4.00;;
8046;SDS011;67150;42.516;23.358;2023-06-10T13:53:37;4.30;;;4.00;;
8046;SDS011;67150;42.516;23.358;2023-06-10T13:56:06;3.80;;;3.50;;
8046;SDS011;67150;42.516;23.358;2023-06-10T13:58:33;5.87;;;3.70;;
8046;SDS011;67150;42.516;23.358;2023-06-10T14:01:04;4.00;;;3.70;;
8046;SDS011;67150;42.516;23.358;2023-06-10T14:03:31;4.10;;;3.80;;
8046;SDS011;67150;42.516;23.358;2023-06-10T14:05:58;4.00;;;3.70;;
8046;SDS011;67150;42.516;23.358;2023-06-10T14:08:26;4.10;;;3.80;;
8046;SDS011;67150;42.516;23.358;2023-06-10T14:10:53;4.30;;;4.00;;
8046;SDS011;67150;42.516;23.358;2023-06-10T14:13:22;4.03;;;3.63;;
8046;SDS011;67150;42.516;23.358;2023-06-10T14:15:49;3.93;;;3.63;;
8046;SDS011;67150;42.516;23.358;2023-06-10T14:18:17;4.10;;;3.80;;
8046;SDS011;67150;42.516;23.358;2023-06-10T14:20:44;4.23;;;3.93;;
8046;SDS011;67150;42.516;23.358;2023-06-10T14:23:11;4.57;;;4.10;;
8046;SDS011;67150;42.516;23.358;2023-06-10T14:25:39;3.63;;;3.33;;
8046;SDS011;67150;42.516;23.358;2023-06-10T14:28:06;4.10;;;3.80;;
8046;SDS011;67150;42.516;23.358;2023-06-10T14:30:35;3.97;;;3.67;;
8046;SDS011;67150;42.516;23.358;2023-06-10T14:33:02;4.20;;;3.80;;
8046;SDS011;67150;42.516;23.358;2023-06-10T14:35:29;3.93;;;3.63;;
8046;SDS011;67150;42.516;23.358;2023-06-10T14:37:57;3.80;;;3.50;;
8046;SDS011;67150;42.516;23.358;2023-06-10T14:40:24;4.30;;;4.00;;
8046;SDS011;67150;42.516;23.358;2023-06-10T14:42:54;4.40;;;3.77;;
8046;SDS011;67150;42.516;23.358;2023-06-10T14:45:21;4.30;;;3.90;;
8046;SDS011;67150;42.516;23.358;2023-06-10T14:47:52;3.93;;;3.63;;
8046;SDS011;67150;42.516;23.358;2023-06-10T14:50:19;4.27;;;3.97;;
8046;SDS011;67150;42.516;23.358;2023-06-10T14:52:47;3.90;;;3.60;;
8046;SDS011;67150;42.516;23.358;2023-06-10T14:55:15;3.97;;;3.70;;
8046;SDS011;67150;42.516;23.358;2023-06-10T14:57:42;4.50;;;3.60;;
8046;SDS011;67150;42.516;23.358;2023-06-10T15:00:10;4.07;;;3.77;;
8046;SDS011;67150;42.516;23.358;2023-06-10T15:02:40;4.40;;;4.00;;